sensor_id;sensor_type;location;lat;lon;timestamp;P1;durP1;ratioP1;P2;durP2;ratioP2
81209;SDS011;70685;52.496;13.420;2023-06-26T00:01:27;12.98;;;11.75;;
81209;SDS011;70685;52.496;13.420;2023-06-26T00:03:56;13.02;;;11.73;;
81209;SDS011;70685;52.496;13.420;2023-06-26T00:06:23;13.07;;;11.75;;
81209;SDS011;70685;52.496;13.420;2023-06-26T00:08:52;12.75;;;11.52;;
81209;SDS011;70685;52.496;13.420;2023-06-26T00:11:19;12.43;;;11.18;;
81209;SDS011;70685;52.496;13.420;2023-06-26T00:13:47;11.82;;;10.73;;
81209;SDS011;70685;52.496;13.420;2023-06-26T00:16:17;11.95;;;10.95;;
81209;SDS011;70685;52.496;13.420;2023-06-26T00:18:45;13.45;;;12.13;;
81209;SDS011;70685;52.496;13.420;2023-06-26T00:21:18;12.20;;;11.13;;
81209;SDS011;70685;52.496;13.420;2023-06-26T00:23:46;12.20;;;11.15;;
81209;SDS011;70685;52.496;13.420;2023-06-26T00:26:11;11.90;;;10.90;;
81209;SDS011;70685;52.496;13.420;2023-06-26T00:28:40;11.63;;;10.82;;
81209;SDS011;70685;52.496;13.420;2023-06-26T00:31:05;11.27;;;10.47;;
81209;SDS011;70685;52.496;13.420;2023-06-26T00:33:31;11.45;;;10.65;;
81209;SDS011;70685;52.496;13.420;2023-06-26T00:35:56;11.60;;;10.48;;
81209;SDS011;70685;52.496;13.420;2023-06-26T00:38:22;12.38;;;11.27;;
81209;SDS011;70685;52.496;13.420;2023-06-26T00:40:50;12.13;;;10.98;;
81209;SDS011;70685;52.496;13.420;2023-06-26T00:43:16;11.90;;;10.82;;
81209;SDS011;70685;52.496;13.420;2023-06-26T00:45:46;17.73;;;11.48;;
81209;SDS011;70685;52.496;13.420;2023-06-26T00:48:12;13.20;;;10.50;;
81209;SDS011;70685;52.496;13.420;2023-06-26T00:50:40;11.55;;;10.45;;
81209;SDS011;70685;52.496;13.420;2023-06-26T00:53:06;17.08;;;10.90;;
81209;SDS011;70685;52.496;13.420;2023-06-26T00:55:34;12.70;;;11.30;;
81209;SDS011;70685;52.496;13.420;2023-06-26T00:58:00;12.15;;;10.95;;
81209;SDS011;70685;52.496;13.420;2023-06-26T01:00:26;11.52;;;10.73;;
81209;SDS011;70685;52.496;13.420;2023-06-26T01:02:52;11.93;;;10.80;;
81209;SDS011;70685;52.496;13.420;2023-06-26T01:07:49;11.63;;;10.65;;
81209;SDS011;70685;52.496;13.420;2023-06-26T01:10:16;12.70;;;11.43;;
81209;SDS011;70685;52.496;13.420;2023-06-26T01:12:42;11.50;;;10.70;;
81209;SDS011;70685;52.496;13.420;2023-06-26T01:15:08;12.60;;;11.55;;
81209;SDS011;70685;52.496;13.420;2023-06-26T01:17:37;12.48;;;10.77;;
81209;SDS011;70685;52.496;13.420;2023-06-26T01:20:05;11.70;;;10.80;;
81209;SDS011;70685;52.496;13.420;2023-06-26T01:28:16;12.32;;;11.25;;
81209;SDS011;70685;52.496;13.420;2023-06-26T01:33:11;12.25;;;10.23;;
81209;SDS011;70685;52.496;13.420;2023-06-26T01:35:40;11.80;;;10.60;;
81209;SDS011;70685;52.496;13.420;2023-06-26T01:38:15;13.55;;;12.25;;
81209;SDS011;70685;52.496;13.420;2023-06-26T01:40:42;12.82;;;11.65;;
81209;SDS011;70685;52.496;13.420;2023-06-26T01:43:27;13.10;;;11.18;;
81209;SDS011;70685;52.496;13.420;2023-06-26T01:46:09;12.63;;;11.55;;
81209;SDS011;70685;52.496;13.420;2023-06-26T01:51:42;12.48;;;11.30;;
81209;SDS011;70685;52.496;13.420;2023-06-26T01:54:14;12.18;;;11.18;;
81209;SDS011;70685;52.496;13.420;2023-06-26T01:56:45;12.55;;;11.52;;
81209;SDS011;70685;52.496;13.420;2023-06-26T01:59:13;15.63;;;12.50;;
81209;SDS011;70685;52.496;13.420;2023-06-26T02:01:42;13.75;;;12.32;;
81209;SDS011;70685;52.496;13.420;2023-06-26T02:04:10;12.43;;;11.27;;
81209;SDS011;70685;52.496;13.420;2023-06-26T02:06:36;13.07;;;11.85;;
81209;SDS011;70685;52.496;13.420;2023-06-26T02:09:02;13.40;;;12.15;;
81209;SDS011;70685;52.496;13.420;2023-06-26T02:11:28;12.20;;;11.18;;
81209;SDS011;70685;52.496;13.420;2023-06-26T02:13:54;15.45;;;12.13;;
81209;SDS011;70685;52.496;13.420;2023-06-26T02:16:25;13.52;;;12.25;;
81209;SDS011;70685;52.496;13.420;2023-06-26T02:18:50;13.55;;;12.32;;
81209;SDS011;70685;52.496;13.420;2023-06-26T02:21:16;12.60;;;11.57;;
81209;SDS011;70685;52.496;13.420;2023-06-26T02:23:42;11.88;;;10.77;;
81209;SDS011;70685;52.496;13.420;2023-06-26T02:26:07;13.18;;;12.05;;
81209;SDS011;70685;52.496;13.420;2023-06-26T02:28:33;13.57;;;12.35;;
81209;SDS011;70685;52.496;13.420;2023-06-26T02:31:01;12.50;;;11.40;;
81209;SDS011;70685;52.496;13.420;2023-06-26T02:33:26;12.82;;;11.52;;
81209;SDS011;70685;52.496;13.420;2023-06-26T02:35:52;12.75;;;11.50;;
81209;SDS011;70685;52.496;13.420;2023-06-26T02:38:20;13.20;;;12.30;;
81209;SDS011;70685;52.496;13.420;2023-06-26T02:40:46;13.43;;;12.37;;
81209;SDS011;70685;52.496;13.420;2023-06-26T02:43:11;13.30;;;12.13;;
81209;SDS011;70685;52.496;13.420;2023-06-26T02:45:37;14.93;;;13.32;;
81209;SDS011;70685;52.496;13.420;2023-06-26T02:48:05;13.50;;;11.82;;
81209;SDS011;70685;52.496;13.420;2023-06-26T02:50:31;13.30;;;12.10;;
81209;SDS011;70685;52.496;13.420;2023-06-26T02:52:56;14.15;;;12.70;;
81209;SDS011;70685;52.496;13.420;2023-06-26T02:55:22;16.00;;;12.82;;
81209;SDS011;70685;52.496;13.420;2023-06-26T02:57:50;17.55;;;12.63;;
81209;SDS011;70685;52.496;13.420;2023-06-26T03:00:16;14.15;;;11.35;;
81209;SDS011;70685;52.496;13.420;2023-06-26T03:02:42;13.68;;;12.43;;
81209;SDS011;70685;52.496;13.420;2023-06-26T03:05:07;13.43;;;12.18;;
81209;SDS011;70685;52.496;13.420;2023-06-26T03:07:33;14.00;;;12.77;;
81209;SDS011;70685;52.496;13.420;2023-06-26T03:10:01;13.27;;;11.93;;
81209;SDS011;70685;52.496;13.420;2023-06-26T03:12:27;13.27;;;11.98;;
81209;SDS011;70685;52.496;13.420;2023-06-26T03:14:52;13.63;;;12.27;;
81209;SDS011;70685;52.496;13.420;2023-06-26T03:17:18;13.73;;;12.63;;
81209;SDS011;70685;52.496;13.420;2023-06-26T03:19:43;14.80;;;13.35;;
81209;SDS011;70685;52.496;13.420;2023-06-26T03:22:12;13.98;;;12.57;;
81209;SDS011;70685;52.496;13.420;2023-06-26T03:24:37;14.88;;;13.38;;
81209;SDS011;70685;52.496;13.420;2023-06-26T03:27:03;14.50;;;12.98;;
81209;SDS011;70685;52.496;13.420;2023-06-26T03:29:29;15.02;;;13.60;;
81209;SDS011;70685;52.496;13.420;2023-06-26T03:31:55;14.68;;;13.35;;
81209;SDS011;70685;52.496;13.420;2023-06-26T03:34:20;17.40;;;13.40;;
81209;SDS011;70685;52.496;13.420;2023-06-26T03:36:46;14.25;;;13.13;;
81209;SDS011;70685;52.496;13.420;2023-06-26T03:39:14;14.75;;;13.20;;
81209;SDS011;70685;52.496;13.420;2023-06-26T03:41:42;14.80;;;13.63;;
81209;SDS011;70685;52.496;13.420;2023-06-26T03:44:08;14.25;;;13.05;;
81209;SDS011;70685;52.496;13.420;2023-06-26T03:46:33;16.60;;;14.93;;
81209;SDS011;70685;52.496;13.420;2023-06-26T03:49:01;14.57;;;13.13;;
81209;SDS011;70685;52.496;13.420;2023-06-26T03:51:27;14.70;;;13.38;;
81209;SDS011;70685;52.496;13.420;2023-06-26T03:53:55;14.02;;;12.65;;
81209;SDS011;70685;52.496;13.420;2023-06-26T03:56:20;14.35;;;12.88;;
81209;SDS011;70685;52.496;13.420;2023-06-26T03:58:46;15.10;;;13.90;;
81209;SDS011;70685;52.496;13.420;2023-06-26T04:01:12;14.10;;;12.82;;
81209;SDS011;70685;52.496;13.420;2023-06-26T04:03:39;13.50;;;12.30;;
81209;SDS011;70685;52.496;13.420;2023-06-26T04:06:05;13.43;;;12.30;;
81209;SDS011;70685;52.496;13.420;2023-06-26T04:08:31;13.57;;;12.13;;
81209;SDS011;70685;52.496;13.420;2023-06-26T04:10:56;14.55;;;13.15;;
81209;SDS011;70685;52.496;13.420;2023-06-26T04:13:24;12.70;;;11.67;;
81209;SDS011;70685;52.496;13.420;2023-06-26T04:15:50;14.35;;;13.07;;
81209;SDS011;70685;52.496;13.420;2023-06-26T04:18:18;14.45;;;13.13;;
81209;SDS011;70685;52.496;13.420;2023-06-26T04:23:33;13.93;;;12.65;;
81209;SDS011;70685;52.496;13.420;2023-06-26T04:25:59;13.00;;;12.05;;
81209;SDS011;70685;52.496;13.420;2023-06-26T04:28:30;13.38;;;12.30;;
81209;SDS011;70685;52.496;13.420;2023-06-26T04:31:01;12.85;;;11.77;;
81209;SDS011;70685;52.496;13.420;2023-06-26T04:33:28;12.80;;;11.80;;
81209;SDS011;70685;52.496;13.420;2023-06-26T04:38:22;13.13;;;12.15;;
81209;SDS011;70685;52.496;13.420;2023-06-26T04:40:48;13.48;;;12.27;;
81209;SDS011;70685;52.496;13.420;2023-06-26T04:43:16;14.07;;;12.60;;
81209;SDS011;70685;52.496;13.420;2023-06-26T04:45:42;13.77;;;12.48;;
81209;SDS011;70685;52.496;13.420;2023-06-26T04:48:08;13.35;;;11.50;;
81209;SDS011;70685;52.496;13.420;2023-06-26T04:50:34;13.57;;;12.38;;
81209;SDS011;70685;52.496;13.420;2023-06-26T04:53:02;19.93;;;17.80;;
81209;SDS011;70685;52.496;13.420;2023-06-26T04:55:27;13.65;;;12.57;;
81209;SDS011;70685;52.496;13.420;2023-06-26T04:57:53;13.40;;;12.07;;
81209;SDS011;70685;52.496;13.420;2023-06-26T05:00:19;16.15;;;14.77;;
81209;SDS011;70685;52.496;13.420;2023-06-26T05:02:44;17.42;;;14.30;;
81209;SDS011;70685;52.496;13.420;2023-06-26T05:05:13;16.23;;;14.55;;
81209;SDS011;70685;52.496;13.420;2023-06-26T05:07:41;16.77;;;14.95;;
81209;SDS011;70685;52.496;13.420;2023-06-26T05:10:07;14.07;;;12.75;;
81209;SDS011;70685;52.496;13.420;2023-06-26T05:12:35;14.43;;;13.00;;
81209;SDS011;70685;52.496;13.420;2023-06-26T05:15:01;13.90;;;12.70;;
81209;SDS011;70685;52.496;13.420;2023-06-26T05:17:26;14.23;;;12.90;;
81209;SDS011;70685;52.496;13.420;2023-06-26T05:19:52;17.05;;;12.68;;
81209;SDS011;70685;52.496;13.420;2023-06-26T05:22:20;12.93;;;11.80;;
81209;SDS011;70685;52.496;13.420;2023-06-26T05:24:46;13.98;;;12.68;;
81209;SDS011;70685;52.496;13.420;2023-06-26T05:27:13;14.23;;;12.77;;
81209;SDS011;70685;52.496;13.420;2023-06-26T05:29:46;12.32;;;11.38;;
81209;SDS011;70685;52.496;13.420;2023-06-26T05:32:12;18.98;;;11.35;;
81209;SDS011;70685;52.496;13.420;2023-06-26T05:34:42;12.77;;;11.80;;
81209;SDS011;70685;52.496;13.420;2023-06-26T05:37:12;10.70;;;9.82;;
81209;SDS011;70685;52.496;13.420;2023-06-26T05:39:44;10.88;;;10.18;;
81209;SDS011;70685;52.496;13.420;2023-06-26T05:42:10;11.73;;;10.73;;
81209;SDS011;70685;52.496;13.420;2023-06-26T05:44:40;13.40;;;10.70;;
81209;SDS011;70685;52.496;13.420;2023-06-26T05:47:06;10.90;;;9.97;;
81209;SDS011;70685;52.496;13.420;2023-06-26T05:49:32;11.48;;;10.32;;
81209;SDS011;70685;52.496;13.420;2023-06-26T05:51:58;10.45;;;9.52;;
81209;SDS011;70685;52.496;13.420;2023-06-26T05:54:24;10.43;;;9.40;;
81209;SDS011;70685;52.496;13.420;2023-06-26T05:56:52;9.50;;;8.45;;
81209;SDS011;70685;52.496;13.420;2023-06-26T05:59:21;11.45;;;8.13;;
81209;SDS011;70685;52.496;13.420;2023-06-26T06:01:48;9.88;;;9.18;;
81209;SDS011;70685;52.496;13.420;2023-06-26T06:04:20;9.52;;;8.75;;
81209;SDS011;70685;52.496;13.420;2023-06-26T06:06:46;9.50;;;8.57;;
81209;SDS011;70685;52.496;13.420;2023-06-26T06:09:12;7.70;;;7.10;;
81209;SDS011;70685;52.496;13.420;2023-06-26T06:11:38;7.88;;;7.13;;
81209;SDS011;70685;52.496;13.420;2023-06-26T06:14:08;7.38;;;6.80;;
81209;SDS011;70685;52.496;13.420;2023-06-26T06:16:34;7.63;;;7.07;;
81209;SDS011;70685;52.496;13.420;2023-06-26T06:18:59;6.75;;;6.18;;
81209;SDS011;70685;52.496;13.420;2023-06-26T06:21:25;6.90;;;6.43;;
81209;SDS011;70685;52.496;13.420;2023-06-26T06:23:51;6.97;;;6.32;;
81209;SDS011;70685;52.496;13.420;2023-06-26T06:26:25;7.85;;;6.60;;
81209;SDS011;70685;52.496;13.420;2023-06-26T06:36:09;7.32;;;6.28;;
81209;SDS011;70685;52.496;13.420;2023-06-26T06:38:38;7.20;;;6.60;;
81209;SDS011;70685;52.496;13.420;2023-06-26T07:06:13;5.57;;;5.05;;
81209;SDS011;70685;52.496;13.420;2023-06-26T07:59:25;7.18;;;4.30;;
81209;SDS011;70685;52.496;13.420;2023-06-26T08:02:04;4.57;;;4.10;;
81209;SDS011;70685;52.496;13.420;2023-06-26T08:04:54;3.92;;;3.63;;
81209;SDS011;70685;52.496;13.420;2023-06-26T08:10:46;7.40;;;4.70;;
81209;SDS011;70685;52.496;13.420;2023-06-26T08:27:29;4.05;;;3.85;;
81209;SDS011;70685;52.496;13.420;2023-06-26T08:30:28;4.30;;;3.90;;
81209;SDS011;70685;52.496;13.420;2023-06-26T08:54:31;3.55;;;3.35;;
81209;SDS011;70685;52.496;13.420;2023-06-26T10:08:38;3.75;;;3.55;;
81209;SDS011;70685;52.496;13.420;2023-06-26T10:15:08;4.05;;;3.70;;
81209;SDS011;70685;52.496;13.420;2023-06-26T10:24:47;3.28;;;3.15;;
81209;SDS011;70685;52.496;13.420;2023-06-26T10:34:43;2.72;;;2.63;;
81209;SDS011;70685;52.496;13.420;2023-06-26T10:37:24;3.38;;;3.15;;
81209;SDS011;70685;52.496;13.420;2023-06-26T10:50:48;3.80;;;2.75;;
81209;SDS011;70685;52.496;13.420;2023-06-26T11:34:48;3.05;;;2.80;;
81209;SDS011;70685;52.496;13.420;2023-06-26T11:37:54;3.53;;;3.22;;
81209;SDS011;70685;52.496;13.420;2023-06-26T11:44:28;3.63;;;3.38;;
81209;SDS011;70685;52.496;13.420;2023-06-26T11:47:31;4.20;;;3.45;;
81209;SDS011;70685;52.496;13.420;2023-06-26T11:50:17;3.70;;;3.42;;
81209;SDS011;70685;52.496;13.420;2023-06-26T11:52:43;3.97;;;3.08;;
81209;SDS011;70685;52.496;13.420;2023-06-26T11:55:10;3.85;;;3.55;;
81209;SDS011;70685;52.496;13.420;2023-06-26T11:57:37;3.85;;;3.65;;
81209;SDS011;70685;52.496;13.420;2023-06-26T12:00:15;4.20;;;3.90;;
81209;SDS011;70685;52.496;13.420;2023-06-26T12:02:42;3.55;;;3.33;;
81209;SDS011;70685;52.496;13.420;2023-06-26T12:05:09;3.70;;;3.50;;
81209;SDS011;70685;52.496;13.420;2023-06-26T12:07:38;4.00;;;3.70;;
81209;SDS011;70685;52.496;13.420;2023-06-26T12:10:04;6.95;;;3.70;;
81209;SDS011;70685;52.496;13.420;2023-06-26T12:12:31;4.60;;;3.55;;
81209;SDS011;70685;52.496;13.420;2023-06-26T12:15:00;4.03;;;3.83;;
81209;SDS011;70685;52.496;13.420;2023-06-26T12:17:26;4.53;;;4.10;;
81209;SDS011;70685;52.496;13.420;2023-06-26T12:19:51;4.03;;;3.75;;
81209;SDS011;70685;52.496;13.420;2023-06-26T12:22:17;5.32;;;4.93;;
81209;SDS011;70685;52.496;13.420;2023-06-26T12:24:46;4.78;;;4.53;;
81209;SDS011;70685;52.496;13.420;2023-06-26T12:27:13;6.18;;;3.63;;
81209;SDS011;70685;52.496;13.420;2023-06-26T12:29:40;4.55;;;3.55;;
81209;SDS011;70685;52.496;13.420;2023-06-26T12:32:12;3.80;;;3.70;;
81209;SDS011;70685;52.496;13.420;2023-06-26T12:34:40;4.28;;;3.90;;
81209;SDS011;70685;52.496;13.420;2023-06-26T12:37:10;3.90;;;3.70;;
81209;SDS011;70685;52.496;13.420;2023-06-26T12:42:22;3.67;;;3.47;;
81209;SDS011;70685;52.496;13.420;2023-06-26T12:44:52;3.97;;;3.67;;
81209;SDS011;70685;52.496;13.420;2023-06-26T12:47:23;3.78;;;3.67;;
81209;SDS011;70685;52.496;13.420;2023-06-26T12:49:53;4.00;;;3.80;;
81209;SDS011;70685;52.496;13.420;2023-06-26T12:52:19;4.47;;;4.07;;
81209;SDS011;70685;52.496;13.420;2023-06-26T12:54:46;5.05;;;4.05;;
81209;SDS011;70685;52.496;13.420;2023-06-26T12:57:18;4.20;;;3.80;;
81209;SDS011;70685;52.496;13.420;2023-06-26T12:59:46;4.50;;;4.20;;
81209;SDS011;70685;52.496;13.420;2023-06-26T13:02:14;3.60;;;3.50;;
81209;SDS011;70685;52.496;13.420;2023-06-26T13:04:39;4.82;;;4.35;;
81209;SDS011;70685;52.496;13.420;2023-06-26T13:07:09;4.47;;;4.28;;
81209;SDS011;70685;52.496;13.420;2023-06-26T13:09:37;4.03;;;3.78;;
81209;SDS011;70685;52.496;13.420;2023-06-26T13:12:06;4.57;;;4.18;;
81209;SDS011;70685;52.496;13.420;2023-06-26T13:14:37;4.60;;;4.20;;
81209;SDS011;70685;52.496;13.420;2023-06-26T13:17:05;4.47;;;4.20;;
81209;SDS011;70685;52.496;13.420;2023-06-26T13:19:31;5.57;;;4.60;;
81209;SDS011;70685;52.496;13.420;2023-06-26T13:21:56;5.18;;;4.88;;
81209;SDS011;70685;52.496;13.420;2023-06-26T13:24:22;4.88;;;4.57;;
81209;SDS011;70685;52.496;13.420;2023-06-26T13:26:48;5.28;;;4.85;;
81209;SDS011;70685;52.496;13.420;2023-06-26T13:29:13;4.97;;;4.60;;
81209;SDS011;70685;52.496;13.420;2023-06-26T13:31:39;5.05;;;4.50;;
81209;SDS011;70685;52.496;13.420;2023-06-26T13:34:05;5.35;;;5.05;;
81209;SDS011;70685;52.496;13.420;2023-06-26T13:36:33;7.18;;;4.80;;
81209;SDS011;70685;52.496;13.420;2023-06-26T13:38:59;4.88;;;4.57;;
81209;SDS011;70685;52.496;13.420;2023-06-26T13:41:24;5.55;;;5.22;;
81209;SDS011;70685;52.496;13.420;2023-06-26T13:43:50;12.18;;;4.97;;
81209;SDS011;70685;52.496;13.420;2023-06-26T13:46:17;5.50;;;5.20;;
81209;SDS011;70685;52.496;13.420;2023-06-26T13:48:43;5.40;;;5.10;;
81209;SDS011;70685;52.496;13.420;2023-06-26T13:51:14;5.18;;;4.88;;
81209;SDS011;70685;52.496;13.420;2023-06-26T13:53:42;5.32;;;4.88;;
81209;SDS011;70685;52.496;13.420;2023-06-26T13:56:18;5.25;;;4.70;;
81209;SDS011;70685;52.496;13.420;2023-06-26T13:58:44;5.05;;;4.65;;
81209;SDS011;70685;52.496;13.420;2023-06-26T14:01:11;5.43;;;4.97;;
81209;SDS011;70685;52.496;13.420;2023-06-26T14:03:38;5.47;;;4.88;;
81209;SDS011;70685;52.496;13.420;2023-06-26T14:06:06;5.53;;;5.10;;
81209;SDS011;70685;52.496;13.420;2023-06-26T14:08:31;5.90;;;5.22;;
81209;SDS011;70685;52.496;13.420;2023-06-26T14:10:57;4.93;;;4.72;;
81209;SDS011;70685;52.496;13.420;2023-06-26T14:13:23;5.30;;;5.00;;
81209;SDS011;70685;52.496;13.420;2023-06-26T14:15:49;5.47;;;4.97;;
81209;SDS011;70685;52.496;13.420;2023-06-26T14:18:17;6.43;;;5.10;;
81209;SDS011;70685;52.496;13.420;2023-06-26T14:20:43;5.25;;;4.85;;
81209;SDS011;70685;52.496;13.420;2023-06-26T14:23:11;10.85;;;5.40;;
81209;SDS011;70685;52.496;13.420;2023-06-26T14:25:39;15.15;;;4.60;;
81209;SDS011;70685;52.496;13.420;2023-06-26T14:28:05;20.05;;;4.60;;
81209;SDS011;70685;52.496;13.420;2023-06-26T14:30:31;26.80;;;5.32;;
81209;SDS011;70685;52.496;13.420;2023-06-26T14:33:01;11.55;;;4.15;;
81209;SDS011;70685;52.496;13.420;2023-06-26T14:35:29;21.00;;;4.70;;
81209;SDS011;70685;52.496;13.420;2023-06-26T14:37:55;25.90;;;5.45;;
81209;SDS011;70685;52.496;13.420;2023-06-26T14:40:21;16.85;;;6.20;;
81209;SDS011;70685;52.496;13.420;2023-06-26T14:42:46;14.98;;;7.57;;
81209;SDS011;70685;52.496;13.420;2023-06-26T14:45:12;28.20;;;8.23;;
81209;SDS011;70685;52.496;13.420;2023-06-26T14:47:40;13.27;;;11.80;;
81209;SDS011;70685;52.496;13.420;2023-06-26T14:50:07;12.55;;;11.23;;
81209;SDS011;70685;52.496;13.420;2023-06-26T14:52:36;12.20;;;9.93;;
81209;SDS011;70685;52.496;13.420;2023-06-26T14:55:04;8.32;;;7.50;;
81209;SDS011;70685;52.496;13.420;2023-06-26T14:57:32;8.57;;;7.65;;
81209;SDS011;70685;52.496;13.420;2023-06-26T14:59:58;14.52;;;12.15;;
81209;SDS011;70685;52.496;13.420;2023-06-26T15:02:28;17.67;;;11.63;;
81209;SDS011;70685;52.496;13.420;2023-06-26T15:04:54;13.45;;;12.10;;
81209;SDS011;70685;52.496;13.420;2023-06-26T15:07:21;22.13;;;16.40;;
81209;SDS011;70685;52.496;13.420;2023-06-26T15:09:49;16.60;;;13.37;;
81209;SDS011;70685;52.496;13.420;2023-06-26T15:12:15;27.80;;;18.80;;
81209;SDS011;70685;52.496;13.420;2023-06-26T15:14:43;13.20;;;11.73;;
81209;SDS011;70685;52.496;13.420;2023-06-26T15:17:13;9.68;;;8.73;;
81209;SDS011;70685;52.496;13.420;2023-06-26T15:19:39;9.80;;;8.93;;
81209;SDS011;70685;52.496;13.420;2023-06-26T15:22:09;10.57;;;9.68;;
81209;SDS011;70685;52.496;13.420;2023-06-26T15:24:37;9.20;;;8.50;;
81209;SDS011;70685;52.496;13.420;2023-06-26T15:27:03;9.00;;;8.07;;
81209;SDS011;70685;52.496;13.420;2023-06-26T15:29:31;8.93;;;7.55;;
81209;SDS011;70685;52.496;13.420;2023-06-26T15:31:59;7.35;;;6.60;;
81209;SDS011;70685;52.496;13.420;2023-06-26T15:34:25;7.95;;;6.65;;
81209;SDS011;70685;52.496;13.420;2023-06-26T15:36:51;6.68;;;6.07;;
81209;SDS011;70685;52.496;13.420;2023-06-26T15:39:19;7.03;;;6.60;;
81209;SDS011;70685;52.496;13.420;2023-06-26T15:41:47;6.72;;;6.22;;
81209;SDS011;70685;52.496;13.420;2023-06-26T15:44:13;7.25;;;5.93;;
81209;SDS011;70685;52.496;13.420;2023-06-26T15:46:39;6.50;;;5.90;;
81209;SDS011;70685;52.496;13.420;2023-06-26T15:49:07;10.50;;;6.25;;
81209;SDS011;70685;52.496;13.420;2023-06-26T15:51:33;7.40;;;6.88;;
81209;SDS011;70685;52.496;13.420;2023-06-26T15:56:28;6.97;;;6.40;;
81209;SDS011;70685;52.496;13.420;2023-06-26T15:58:56;7.27;;;6.77;;
81209;SDS011;70685;52.496;13.420;2023-06-26T16:01:21;8.02;;;7.35;;
81209;SDS011;70685;52.496;13.420;2023-06-26T16:03:47;8.30;;;7.55;;
81209;SDS011;70685;52.496;13.420;2023-06-26T16:06:13;10.07;;;9.05;;
81209;SDS011;70685;52.496;13.420;2023-06-26T16:08:41;9.57;;;8.82;;
81209;SDS011;70685;52.496;13.420;2023-06-26T16:11:10;7.93;;;7.43;;
81209;SDS011;70685;52.496;13.420;2023-06-26T16:13:38;8.77;;;8.13;;
81209;SDS011;70685;52.496;13.420;2023-06-26T16:16:04;10.27;;;9.32;;
81209;SDS011;70685;52.496;13.420;2023-06-26T16:18:32;7.38;;;6.78;;
81209;SDS011;70685;52.496;13.420;2023-06-26T16:20:58;8.40;;;7.60;;
81209;SDS011;70685;52.496;13.420;2023-06-26T16:23:24;8.73;;;8.13;;
81209;SDS011;70685;52.496;13.420;2023-06-26T16:25:50;8.85;;;8.00;;
81209;SDS011;70685;52.496;13.420;2023-06-26T16:28:16;7.57;;;7.10;;
81209;SDS011;70685;52.496;13.420;2023-06-26T16:30:42;9.00;;;7.85;;
81209;SDS011;70685;52.496;13.420;2023-06-26T16:33:10;8.30;;;7.68;;
81209;SDS011;70685;52.496;13.420;2023-06-26T16:35:36;8.70;;;7.72;;
81209;SDS011;70685;52.496;13.420;2023-06-26T16:38:05;12.40;;;7.32;;
81209;SDS011;70685;52.496;13.420;2023-06-26T16:40:36;9.25;;;8.50;;
81209;SDS011;70685;52.496;13.420;2023-06-26T16:43:02;7.35;;;6.70;;
81209;SDS011;70685;52.496;13.420;2023-06-26T16:45:27;7.82;;;7.18;;
81209;SDS011;70685;52.496;13.420;2023-06-26T16:47:53;8.85;;;8.15;;
81209;SDS011;70685;52.496;13.420;2023-06-26T16:50:19;9.40;;;8.60;;
81209;SDS011;70685;52.496;13.420;2023-06-26T16:52:45;11.25;;;10.15;;
81209;SDS011;70685;52.496;13.420;2023-06-26T16:55:11;10.38;;;8.85;;
81209;SDS011;70685;52.496;13.420;2023-06-26T16:57:39;10.45;;;9.50;;
81209;SDS011;70685;52.496;13.420;2023-06-26T17:00:08;9.95;;;8.27;;
81209;SDS011;70685;52.496;13.420;2023-06-26T17:02:34;8.40;;;7.50;;
81209;SDS011;70685;52.496;13.420;2023-06-26T17:04:59;9.07;;;8.18;;
81209;SDS011;70685;52.496;13.420;2023-06-26T17:07:27;8.85;;;8.15;;
81209;SDS011;70685;52.496;13.420;2023-06-26T17:09:54;9.10;;;8.05;;
81209;SDS011;70685;52.496;13.420;2023-06-26T17:12:20;13.57;;;7.72;;
81209;SDS011;70685;52.496;13.420;2023-06-26T17:14:51;9.60;;;8.55;;
81209;SDS011;70685;52.496;13.420;2023-06-26T17:17:17;9.15;;;8.20;;
81209;SDS011;70685;52.496;13.420;2023-06-26T17:19:46;10.07;;;8.93;;
81209;SDS011;70685;52.496;13.420;2023-06-26T17:22:13;9.75;;;8.55;;
81209;SDS011;70685;52.496;13.420;2023-06-26T17:24:41;12.68;;;11.13;;
81209;SDS011;70685;52.496;13.420;2023-06-26T17:27:11;11.27;;;7.63;;
81209;SDS011;70685;52.496;13.420;2023-06-26T17:29:39;8.57;;;7.88;;
81209;SDS011;70685;52.496;13.420;2023-06-26T17:32:05;9.60;;;8.70;;
81209;SDS011;70685;52.496;13.420;2023-06-26T17:34:31;8.07;;;7.28;;
81209;SDS011;70685;52.496;13.420;2023-06-26T17:36:57;8.07;;;7.32;;
81209;SDS011;70685;52.496;13.420;2023-06-26T17:39:23;7.85;;;7.07;;
81209;SDS011;70685;52.496;13.420;2023-06-26T17:41:51;10.07;;;8.10;;
81209;SDS011;70685;52.496;13.420;2023-06-26T17:44:17;8.68;;;8.07;;
81209;SDS011;70685;52.496;13.420;2023-06-26T17:46:43;7.80;;;7.10;;
81209;SDS011;70685;52.496;13.420;2023-06-26T17:49:11;8.20;;;7.15;;
81209;SDS011;70685;52.496;13.420;2023-06-26T17:51:37;7.68;;;6.85;;
81209;SDS011;70685;52.496;13.420;2023-06-26T17:54:03;10.07;;;6.75;;
81209;SDS011;70685;52.496;13.420;2023-06-26T17:56:28;7.88;;;7.18;;
81209;SDS011;70685;52.496;13.420;2023-06-26T17:58:56;7.18;;;6.53;;
81209;SDS011;70685;52.496;13.420;2023-06-26T18:01:25;8.27;;;7.13;;
81209;SDS011;70685;52.496;13.420;2023-06-26T18:03:53;9.27;;;6.53;;
81209;SDS011;70685;52.496;13.420;2023-06-26T18:06:21;7.75;;;6.55;;
81209;SDS011;70685;52.496;13.420;2023-06-26T18:08:48;10.40;;;6.47;;
81209;SDS011;70685;52.496;13.420;2023-06-26T18:11:14;8.02;;;6.80;;
81209;SDS011;70685;52.496;13.420;2023-06-26T18:13:39;6.78;;;6.20;;
81209;SDS011;70685;52.496;13.420;2023-06-26T18:16:10;8.02;;;6.47;;
81209;SDS011;70685;52.496;13.420;2023-06-26T18:18:38;7.75;;;6.78;;
81209;SDS011;70685;52.496;13.420;2023-06-26T18:21:04;7.35;;;6.80;;
81209;SDS011;70685;52.496;13.420;2023-06-26T18:23:31;18.20;;;7.78;;
81209;SDS011;70685;52.496;13.420;2023-06-26T18:26:00;8.48;;;6.28;;
81209;SDS011;70685;52.496;13.420;2023-06-26T18:28:28;8.93;;;6.53;;
81209;SDS011;70685;52.496;13.420;2023-06-26T18:30:58;6.40;;;5.80;;
81209;SDS011;70685;52.496;13.420;2023-06-26T18:33:24;8.88;;;6.22;;
81209;SDS011;70685;52.496;13.420;2023-06-26T18:35:53;7.63;;;6.93;;
81209;SDS011;70685;52.496;13.420;2023-06-26T18:38:21;9.68;;;7.07;;
81209;SDS011;70685;52.496;13.420;2023-06-26T18:40:49;11.37;;;8.30;;
81209;SDS011;70685;52.496;13.420;2023-06-26T18:43:16;10.65;;;8.18;;
81209;SDS011;70685;52.496;13.420;2023-06-26T18:45:43;13.32;;;11.63;;
81209;SDS011;70685;52.496;13.420;2023-06-26T18:48:09;12.05;;;9.07;;
81209;SDS011;70685;52.496;13.420;2023-06-26T18:50:35;6.57;;;6.00;;
81209;SDS011;70685;52.496;13.420;2023-06-26T18:53:01;10.07;;;7.68;;
81209;SDS011;70685;52.496;13.420;2023-06-26T18:55:27;9.57;;;7.78;;
81209;SDS011;70685;52.496;13.420;2023-06-26T18:57:58;10.00;;;6.15;;
81209;SDS011;70685;52.496;13.420;2023-06-26T19:00:26;8.98;;;4.95;;
81209;SDS011;70685;52.496;13.420;2023-06-26T19:02:53;10.90;;;5.18;;
81209;SDS011;70685;52.496;13.420;2023-06-26T19:05:18;8.63;;;5.72;;
81209;SDS011;70685;52.496;13.420;2023-06-26T19:07:45;8.43;;;7.53;;
81209;SDS011;70685;52.496;13.420;2023-06-26T19:10:11;11.93;;;7.07;;
81209;SDS011;70685;52.496;13.420;2023-06-26T19:12:41;9.30;;;7.05;;
81209;SDS011;70685;52.496;13.420;2023-06-26T19:15:11;6.72;;;5.95;;
81209;SDS011;70685;52.496;13.420;2023-06-26T19:17:40;10.50;;;6.88;;
81209;SDS011;70685;52.496;13.420;2023-06-26T19:20:08;5.75;;;5.15;;